sensor_id;sensor_type;location;lat;lon;timestamp;P1;durP1;ratioP1;P2;durP2;ratioP2
30472;SDS011;17263;48.160;11.452;2023-04-29T00:00:07;2.00;;;0.90;;
30472;SDS011;17263;48.160;11.452;2023-04-29T00:02:34;1.90;;;1.17;;
30472;SDS011;17263;48.160;11.452;2023-04-29T00:05:00;1.07;;;0.97;;
30472;SDS011;17263;48.160;11.452;2023-04-29T00:07:31;1.53;;;1.07;;
30472;SDS011;17263;48.160;11.452;2023-04-29T00:09:58;0.83;;;0.83;;
30472;SDS011;17263;48.160;11.452;2023-04-29T00:12:24;2.67;;;1.20;;
30472;SDS011;17263;48.160;11.452;2023-04-29T00:14:50;1.17;;;1.00;;
30472;SDS011;17263;48.160;11.452;2023-04-29T00:17:16;0.83;;;0.83;;
30472;SDS011;17263;48.160;11.452;2023-04-29T00:19:43;0.97;;;0.90;;
30472;SDS011;17263;48.160;11.452;2023-04-29T00:22:09;1.80;;;0.90;;
30472;SDS011;17263;48.160;11.452;2023-04-29T00:24:35;1.17;;;1.07;;
30472;SDS011;17263;48.160;11.452;2023-04-29T00:27:01;1.00;;;0.90;;
30472;SDS011;17263;48.160;11.452;2023-04-29T00:29:28;1.30;;;0.90;;
30472;SDS011;17263;48.160;11.452;2023-04-29T00:31:54;1.07;;;0.80;;
30472;SDS011;17263;48.160;11.452;2023-04-29T00:34:20;2.00;;;1.00;;
30472;SDS011;17263;48.160;11.452;2023-04-29T00:36:46;1.37;;;0.93;;
30472;SDS011;17263;48.160;11.452;2023-04-29T00:39:12;0.90;;;0.90;;
30472;SDS011;17263;48.160;11.452;2023-04-29T00:41:38;0.77;;;0.77;;
30472;SDS011;17263;48.160;11.452;2023-04-29T00:44:04;1.00;;;0.90;;
30472;SDS011;17263;48.160;11.452;2023-04-29T00:46:31;1.17;;;1.03;;
30472;SDS011;17263;48.160;11.452;2023-04-29T00:48:57;1.20;;;1.10;;
30472;SDS011;17263;48.160;11.452;2023-04-29T00:51:24;2.03;;;0.80;;
30472;SDS011;17263;48.160;11.452;2023-04-29T00:53:51;1.73;;;1.00;;
30472;SDS011;17263;48.160;11.452;2023-04-29T00:56:18;0.83;;;0.83;;
30472;SDS011;17263;48.160;11.452;2023-04-29T00:58:45;1.13;;;0.93;;
30472;SDS011;17263;48.160;11.452;2023-04-29T01:01:15;1.00;;;0.90;;
30472;SDS011;17263;48.160;11.452;2023-04-29T01:03:41;1.10;;;1.00;;
30472;SDS011;17263;48.160;11.452;2023-04-29T01:06:09;1.30;;;1.10;;
30472;SDS011;17263;48.160;11.452;2023-04-29T01:11:27;1.30;;;1.13;;
30472;SDS011;17263;48.160;11.452;2023-04-29T01:14:00;1.13;;;1.00;;
30472;SDS011;17263;48.160;11.452;2023-04-29T01:16:29;1.10;;;1.00;;
30472;SDS011;17263;48.160;11.452;2023-04-29T01:19:09;1.20;;;1.00;;
30472;SDS011;17263;48.160;11.452;2023-04-29T01:21:46;1.30;;;1.10;;
30472;SDS011;17263;48.160;11.452;2023-04-29T01:24:14;1.30;;;1.20;;
30472;SDS011;17263;48.160;11.452;2023-04-29T01:26:41;1.20;;;1.10;;
30472;SDS011;17263;48.160;11.452;2023-04-29T01:29:34;1.40;;;1.10;;
30472;SDS011;17263;48.160;11.452;2023-04-29T01:32:21;1.13;;;1.03;;
30472;SDS011;17263;48.160;11.452;2023-04-29T01:34:59;2.00;;;1.00;;
30472;SDS011;17263;48.160;11.452;2023-04-29T01:40:18;1.40;;;1.30;;
30472;SDS011;17263;48.160;11.452;2023-04-29T01:42:56;1.60;;;1.50;;
30472;SDS011;17263;48.160;11.452;2023-04-29T01:45:26;1.80;;;1.30;;
30472;SDS011;17263;48.160;11.452;2023-04-29T01:47:54;2.97;;;1.50;;
30472;SDS011;17263;48.160;11.452;2023-04-29T01:50:21;1.60;;;1.50;;
30472;SDS011;17263;48.160;11.452;2023-04-29T01:52:47;1.70;;;1.40;;
30472;SDS011;17263;48.160;11.452;2023-04-29T01:55:13;1.70;;;1.57;;
30472;SDS011;17263;48.160;11.452;2023-04-29T01:57:39;1.60;;;1.50;;
30472;SDS011;17263;48.160;11.452;2023-04-29T02:00:06;1.60;;;1.50;;
30472;SDS011;17263;48.160;11.452;2023-04-29T02:02:33;2.27;;;1.50;;
30472;SDS011;17263;48.160;11.452;2023-04-29T02:04:59;2.43;;;1.67;;
30472;SDS011;17263;48.160;11.452;2023-04-29T02:07:25;1.33;;;1.23;;
30472;SDS011;17263;48.160;11.452;2023-04-29T02:09:52;1.70;;;1.60;;
30472;SDS011;17263;48.160;11.452;2023-04-29T02:12:18;1.60;;;1.50;;
30472;SDS011;17263;48.160;11.452;2023-04-29T02:14:44;2.67;;;1.70;;
30472;SDS011;17263;48.160;11.452;2023-04-29T02:17:12;2.20;;;1.97;;
30472;SDS011;17263;48.160;11.452;2023-04-29T02:19:38;1.70;;;1.60;;
30472;SDS011;17263;48.160;11.452;2023-04-29T02:22:04;3.17;;;1.63;;
30472;SDS011;17263;48.160;11.452;2023-04-29T02:24:30;2.60;;;1.60;;
30472;SDS011;17263;48.160;11.452;2023-04-29T02:26:57;2.63;;;1.80;;
30472;SDS011;17263;48.160;11.452;2023-04-29T02:29:24;2.27;;;1.50;;
30472;SDS011;17263;48.160;11.452;2023-04-29T02:31:51;2.50;;;2.00;;
30472;SDS011;17263;48.160;11.452;2023-04-29T02:34:17;1.90;;;1.80;;
30472;SDS011;17263;48.160;11.452;2023-04-29T02:36:43;4.40;;;1.90;;
30472;SDS011;17263;48.160;11.452;2023-04-29T02:39:09;2.10;;;1.90;;
30472;SDS011;17263;48.160;11.452;2023-04-29T02:41:35;2.30;;;2.10;;
30472;SDS011;17263;48.160;11.452;2023-04-29T02:44:01;1.80;;;1.70;;
30472;SDS011;17263;48.160;11.452;2023-04-29T02:46:28;5.03;;;2.07;;
30472;SDS011;17263;48.160;11.452;2023-04-29T02:48:54;1.80;;;1.70;;
30472;SDS011;17263;48.160;11.452;2023-04-29T02:51:20;2.37;;;2.00;;
30472;SDS011;17263;48.160;11.452;2023-04-29T02:53:46;1.87;;;1.60;;
30472;SDS011;17263;48.160;11.452;2023-04-29T02:56:12;2.47;;;1.70;;
30472;SDS011;17263;48.160;11.452;2023-04-29T02:58:38;1.60;;;1.50;;
30472;SDS011;17263;48.160;11.452;2023-04-29T03:01:04;2.00;;;1.80;;
30472;SDS011;17263;48.160;11.452;2023-04-29T03:03:30;2.60;;;1.80;;
30472;SDS011;17263;48.160;11.452;2023-04-29T03:05:56;1.73;;;1.63;;
30472;SDS011;17263;48.160;11.452;2023-04-29T03:08:22;1.73;;;1.63;;
30472;SDS011;17263;48.160;11.452;2023-04-29T03:10:48;2.73;;;2.03;;
30472;SDS011;17263;48.160;11.452;2023-04-29T03:13:14;1.90;;;1.80;;
30472;SDS011;17263;48.160;11.452;2023-04-29T03:15:40;2.97;;;2.10;;
30472;SDS011;17263;48.160;11.452;2023-04-29T03:18:07;2.13;;;1.93;;
30472;SDS011;17263;48.160;11.452;2023-04-29T03:20:34;2.30;;;2.07;;
30472;SDS011;17263;48.160;11.452;2023-04-29T03:23:00;3.43;;;2.37;;
30472;SDS011;17263;48.160;11.452;2023-04-29T03:25:26;2.77;;;2.23;;
30472;SDS011;17263;48.160;11.452;2023-04-29T03:27:53;5.33;;;2.50;;
30472;SDS011;17263;48.160;11.452;2023-04-29T03:30:19;4.87;;;2.50;;
30472;SDS011;17263;48.160;11.452;2023-04-29T03:32:45;3.17;;;2.80;;
30472;SDS011;17263;48.160;11.452;2023-04-29T03:35:11;3.07;;;2.17;;
30472;SDS011;17263;48.160;11.452;2023-04-29T03:37:37;2.43;;;2.23;;
30472;SDS011;17263;48.160;11.452;2023-04-29T03:40:04;2.80;;;2.33;;
30472;SDS011;17263;48.160;11.452;2023-04-29T03:42:30;3.53;;;2.53;;
30472;SDS011;17263;48.160;11.452;2023-04-29T03:44:56;4.30;;;2.90;;
30472;SDS011;17263;48.160;11.452;2023-04-29T03:47:22;4.53;;;2.70;;
30472;SDS011;17263;48.160;11.452;2023-04-29T03:49:48;4.57;;;2.57;;
30472;SDS011;17263;48.160;11.452;2023-04-29T03:52:15;3.30;;;2.50;;
30472;SDS011;17263;48.160;11.452;2023-04-29T03:54:41;3.93;;;2.97;;
30472;SDS011;17263;48.160;11.452;2023-04-29T03:57:07;2.53;;;2.33;;
30472;SDS011;17263;48.160;11.452;2023-04-29T03:59:33;3.50;;;2.40;;
30472;SDS011;17263;48.160;11.452;2023-04-29T04:01:59;2.60;;;2.40;;
30472;SDS011;17263;48.160;11.452;2023-04-29T04:04:25;4.13;;;2.10;;
30472;SDS011;17263;48.160;11.452;2023-04-29T04:06:51;2.20;;;2.00;;
30472;SDS011;17263;48.160;11.452;2023-04-29T04:09:17;2.67;;;2.30;;
30472;SDS011;17263;48.160;11.452;2023-04-29T04:11:43;3.00;;;2.80;;
30472;SDS011;17263;48.160;11.452;2023-04-29T04:14:10;3.97;;;2.77;;
30472;SDS011;17263;48.160;11.452;2023-04-29T04:16:36;2.43;;;2.23;;
30472;SDS011;17263;48.160;11.452;2023-04-29T04:19:02;2.40;;;2.20;;
30472;SDS011;17263;48.160;11.452;2023-04-29T04:21:28;2.80;;;2.50;;
30472;SDS011;17263;48.160;11.452;2023-04-29T04:23:54;2.40;;;2.20;;
30472;SDS011;17263;48.160;11.452;2023-04-29T04:26:20;2.67;;;2.47;;
30472;SDS011;17263;48.160;11.452;2023-04-29T04:28:47;3.07;;;2.87;;
30472;SDS011;17263;48.160;11.452;2023-04-29T04:31:13;2.87;;;2.40;;
30472;SDS011;17263;48.160;11.452;2023-04-29T04:33:39;3.63;;;2.53;;
30472;SDS011;17263;48.160;11.452;2023-04-29T04:36:06;2.97;;;2.70;;
30472;SDS011;17263;48.160;11.452;2023-04-29T04:38:32;2.40;;;2.20;;
30472;SDS011;17263;48.160;11.452;2023-04-29T04:40:58;2.90;;;2.60;;
30472;SDS011;17263;48.160;11.452;2023-04-29T04:43:24;2.80;;;2.53;;
30472;SDS011;17263;48.160;11.452;2023-04-29T04:45:51;2.70;;;2.50;;
30472;SDS011;17263;48.160;11.452;2023-04-29T04:48:17;2.80;;;2.60;;
30472;SDS011;17263;48.160;11.452;2023-04-29T04:50:44;3.30;;;3.00;;
30472;SDS011;17263;48.160;11.452;2023-04-29T04:53:10;2.83;;;2.53;;
30472;SDS011;17263;48.160;11.452;2023-04-29T04:55:36;3.43;;;3.10;;
30472;SDS011;17263;48.160;11.452;2023-04-29T04:58:02;3.40;;;3.10;;
30472;SDS011;17263;48.160;11.452;2023-04-29T05:00:28;4.60;;;3.53;;
30472;SDS011;17263;48.160;11.452;2023-04-29T05:02:54;4.50;;;3.60;;
30472;SDS011;17263;48.160;11.452;2023-04-29T05:05:20;4.07;;;3.20;;
30472;SDS011;17263;48.160;11.452;2023-04-29T05:07:46;3.47;;;3.17;;
30472;SDS011;17263;48.160;11.452;2023-04-29T05:10:12;4.63;;;3.20;;
30472;SDS011;17263;48.160;11.452;2023-04-29T05:12:38;4.63;;;3.13;;
30472;SDS011;17263;48.160;11.452;2023-04-29T05:15:04;2.93;;;2.73;;
30472;SDS011;17263;48.160;11.452;2023-04-29T05:17:30;3.00;;;2.70;;
30472;SDS011;17263;48.160;11.452;2023-04-29T05:19:56;3.33;;;2.70;;
30472;SDS011;17263;48.160;11.452;2023-04-29T05:22:22;3.17;;;2.77;;
30472;SDS011;17263;48.160;11.452;2023-04-29T05:24:48;3.67;;;2.43;;
30472;SDS011;17263;48.160;11.452;2023-04-29T05:27:16;2.60;;;2.40;;
30472;SDS011;17263;48.160;11.452;2023-04-29T05:29:42;4.53;;;2.40;;
30472;SDS011;17263;48.160;11.452;2023-04-29T05:32:08;2.50;;;2.30;;
30472;SDS011;17263;48.160;11.452;2023-04-29T05:34:34;2.40;;;2.20;;
30472;SDS011;17263;48.160;11.452;2023-04-29T05:37:00;2.40;;;2.10;;
30472;SDS011;17263;48.160;11.452;2023-04-29T05:39:26;2.23;;;1.97;;
30472;SDS011;17263;48.160;11.452;2023-04-29T05:41:52;1.90;;;1.80;;
30472;SDS011;17263;48.160;11.452;2023-04-29T05:44:18;2.67;;;2.30;;
30472;SDS011;17263;48.160;11.452;2023-04-29T05:46:44;2.03;;;1.70;;
30472;SDS011;17263;48.160;11.452;2023-04-29T05:49:13;3.33;;;1.97;;
30472;SDS011;17263;48.160;11.452;2023-04-29T05:51:40;3.97;;;1.60;;
30472;SDS011;17263;48.160;11.452;2023-04-29T05:54:06;2.33;;;1.60;;
30472;SDS011;17263;48.160;11.452;2023-04-29T05:56:32;2.03;;;1.83;;
30472;SDS011;17263;48.160;11.452;2023-04-29T05:58:58;1.97;;;1.70;;
30472;SDS011;17263;48.160;11.452;2023-04-29T06:01:24;1.60;;;1.47;;
30472;SDS011;17263;48.160;11.452;2023-04-29T06:03:50;1.77;;;1.37;;
30472;SDS011;17263;48.160;11.452;2023-04-29T06:06:16;6.63;;;1.77;;
30472;SDS011;17263;48.160;11.452;2023-04-29T06:08:42;4.23;;;1.60;;
30472;SDS011;17263;48.160;11.452;2023-04-29T06:11:08;2.17;;;1.73;;
30472;SDS011;17263;48.160;11.452;2023-04-29T06:13:34;1.80;;;1.70;;
30472;SDS011;17263;48.160;11.452;2023-04-29T06:16:00;2.43;;;1.60;;
30472;SDS011;17263;48.160;11.452;2023-04-29T06:18:26;2.20;;;1.87;;
30472;SDS011;17263;48.160;11.452;2023-04-29T06:20:52;2.93;;;1.83;;
30472;SDS011;17263;48.160;11.452;2023-04-29T06:23:18;3.83;;;2.20;;
30472;SDS011;17263;48.160;11.452;2023-04-29T06:25:44;2.60;;;2.40;;
30472;SDS011;17263;48.160;11.452;2023-04-29T06:28:11;3.17;;;2.83;;
30472;SDS011;17263;48.160;11.452;2023-04-29T06:30:37;3.30;;;3.00;;
30472;SDS011;17263;48.160;11.452;2023-04-29T06:33:03;3.30;;;3.00;;
30472;SDS011;17263;48.160;11.452;2023-04-29T06:35:29;3.20;;;2.90;;
30472;SDS011;17263;48.160;11.452;2023-04-29T06:37:55;3.33;;;3.03;;
30472;SDS011;17263;48.160;11.452;2023-04-29T06:40:21;5.20;;;3.17;;
30472;SDS011;17263;48.160;11.452;2023-04-29T06:42:47;4.33;;;3.73;;
30472;SDS011;17263;48.160;11.452;2023-04-29T06:45:13;3.93;;;3.30;;
30472;SDS011;17263;48.160;11.452;2023-04-29T06:47:39;3.83;;;3.53;;
30472;SDS011;17263;48.160;11.452;2023-04-29T06:50:05;3.60;;;3.30;;
30472;SDS011;17263;48.160;11.452;2023-04-29T06:52:31;4.00;;;3.60;;
30472;SDS011;17263;48.160;11.452;2023-04-29T06:54:57;4.23;;;3.50;;
30472;SDS011;17263;48.160;11.452;2023-04-29T06:57:24;4.23;;;3.27;;
30472;SDS011;17263;48.160;11.452;2023-04-29T06:59:50;3.53;;;3.23;;
30472;SDS011;17263;48.160;11.452;2023-04-29T07:02:16;3.87;;;3.47;;
30472;SDS011;17263;48.160;11.452;2023-04-29T07:04:42;4.33;;;3.00;;
30472;SDS011;17263;48.160;11.452;2023-04-29T07:07:08;3.57;;;2.90;;
30472;SDS011;17263;48.160;11.452;2023-04-29T07:09:34;4.17;;;2.70;;
30472;SDS011;17263;48.160;11.452;2023-04-29T07:12:00;4.13;;;2.67;;
30472;SDS011;17263;48.160;11.452;2023-04-29T07:14:28;2.90;;;2.50;;
30472;SDS011;17263;48.160;11.452;2023-04-29T07:16:54;3.80;;;2.20;;
30472;SDS011;17263;48.160;11.452;2023-04-29T07:19:20;2.83;;;2.43;;
30472;SDS011;17263;48.160;11.452;2023-04-29T07:21:46;2.63;;;2.43;;
30472;SDS011;17263;48.160;11.452;2023-04-29T07:24:12;2.60;;;2.40;;
30472;SDS011;17263;48.160;11.452;2023-04-29T07:26:38;3.53;;;2.87;;
30472;SDS011;17263;48.160;11.452;2023-04-29T07:29:05;3.67;;;2.60;;
30472;SDS011;17263;48.160;11.452;2023-04-29T07:31:31;7.03;;;6.43;;
30472;SDS011;17263;48.160;11.452;2023-04-29T07:33:57;9.13;;;5.07;;
30472;SDS011;17263;48.160;11.452;2023-04-29T07:36:23;2.40;;;2.20;;
30472;SDS011;17263;48.160;11.452;2023-04-29T07:38:49;3.33;;;2.10;;
30472;SDS011;17263;48.160;11.452;2023-04-29T07:41:16;2.73;;;2.53;;
30472;SDS011;17263;48.160;11.452;2023-04-29T07:43:42;2.87;;;2.37;;
30472;SDS011;17263;48.160;11.452;2023-04-29T07:46:08;3.57;;;2.53;;
30472;SDS011;17263;48.160;11.452;2023-04-29T07:48:35;2.37;;;2.17;;
30472;SDS011;17263;48.160;11.452;2023-04-29T07:51:05;2.67;;;2.30;;
30472;SDS011;17263;48.160;11.452;2023-04-29T07:53:31;2.27;;;2.07;;
30472;SDS011;17263;48.160;11.452;2023-04-29T07:55:57;2.60;;;2.13;;
30472;SDS011;17263;48.160;11.452;2023-04-29T07:58:23;2.83;;;2.30;;
30472;SDS011;17263;48.160;11.452;2023-04-29T08:00:49;2.67;;;2.17;;
30472;SDS011;17263;48.160;11.452;2023-04-29T08:03:15;2.50;;;1.90;;
30472;SDS011;17263;48.160;11.452;2023-04-29T08:05:41;2.73;;;2.07;;
30472;SDS011;17263;48.160;11.452;2023-04-29T08:08:07;3.50;;;2.10;;
30472;SDS011;17263;48.160;11.452;2023-04-29T08:10:36;3.10;;;2.40;;
30472;SDS011;17263;48.160;11.452;2023-04-29T08:13:05;2.17;;;1.97;;
30472;SDS011;17263;48.160;11.452;2023-04-29T08:15:31;2.33;;;2.10;;
30472;SDS011;17263;48.160;11.452;2023-04-29T08:17:58;5.60;;;2.10;;
30472;SDS011;17263;48.160;11.452;2023-04-29T08:20:24;4.10;;;1.97;;
30472;SDS011;17263;48.160;11.452;2023-04-29T08:22:50;3.90;;;1.90;;
30472;SDS011;17263;48.160;11.452;2023-04-29T08:25:16;2.17;;;1.50;;
30472;SDS011;17263;48.160;11.452;2023-04-29T08:27:42;2.00;;;1.80;;
30472;SDS011;17263;48.160;11.452;2023-04-29T08:30:10;5.10;;;1.95;;
30472;SDS011;17263;48.160;11.452;2023-04-29T08:32:36;2.55;;;1.63;;
30472;SDS011;17263;48.160;11.452;2023-04-29T08:35:02;2.28;;;1.67;;
30472;SDS011;17263;48.160;11.452;2023-04-29T08:37:28;2.00;;;1.70;;
30472;SDS011;17263;48.160;11.452;2023-04-29T08:39:54;3.38;;;1.40;;
30472;SDS011;17263;48.160;11.452;2023-04-29T08:42:33;2.58;;;1.60;;
30472;SDS011;17263;48.160;11.452;2023-04-29T08:45:01;2.90;;;1.55;;
30472;SDS011;17263;48.160;11.452;2023-04-29T08:47:29;2.30;;;1.40;;
30472;SDS011;17263;48.160;11.452;2023-04-29T08:49:55;2.30;;;1.45;;
30472;SDS011;17263;48.160;11.452;2023-04-29T08:52:25;2.75;;;1.50;;
30472;SDS011;17263;48.160;11.452;2023-04-29T08:54:51;2.00;;;1.20;;
30472;SDS011;17263;48.160;11.452;2023-04-29T08:57:18;1.48;;;1.38;;
30472;SDS011;17263;48.160;11.452;2023-04-29T08:59:45;1.67;;;1.57;;
30472;SDS011;17263;48.160;11.452;2023-04-29T09:02:12;2.17;;;1.40;;
30472;SDS011;17263;48.160;11.452;2023-04-29T09:04:52;2.07;;;1.60;;
30472;SDS011;17263;48.160;11.452;2023-04-29T09:07:20;2.03;;;1.60;;
30472;SDS011;17263;48.160;11.452;2023-04-29T09:09:47;1.80;;;1.50;;
30472;SDS011;17263;48.160;11.452;2023-04-29T09:12:14;3.33;;;1.20;;
30472;SDS011;17263;48.160;11.452;2023-04-29T09:14:40;1.77;;;1.10;;
30472;SDS011;17263;48.160;11.452;2023-04-29T09:17:06;2.58;;;1.67;;
30472;SDS011;17263;48.160;11.452;2023-04-29T09:19:32;1.38;;;1.20;;
30472;SDS011;17263;48.160;11.452;2023-04-29T09:22:00;1.30;;;1.20;;
30472;SDS011;17263;48.160;11.452;2023-04-29T09:24:27;1.83;;;1.45;;
30472;SDS011;17263;48.160;11.452;2023-04-29T09:26:55;1.50;;;1.40;;
30472;SDS011;17263;48.160;11.452;2023-04-29T09:29:23;2.83;;;1.50;;
30472;SDS011;17263;48.160;11.452;2023-04-29T09:31:49;2.33;;;1.53;;
30472;SDS011;17263;48.160;11.452;2023-04-29T09:34:19;2.87;;;1.50;;
30472;SDS011;17263;48.160;11.452;2023-04-29T09:36:56;2.13;;;1.20;;
30472;SDS011;17263;48.160;11.452;2023-04-29T09:39:23;2.77;;;1.37;;
30472;SDS011;17263;48.160;11.452;2023-04-29T09:44:20;1.38;;;1.20;;
30472;SDS011;17263;48.160;11.452;2023-04-29T09:46:54;1.27;;;1.17;;
30472;SDS011;17263;48.160;11.452;2023-04-29T09:49:22;2.83;;;1.45;;
30472;SDS011;17263;48.160;11.452;2023-04-29T09:52:07;2.38;;;1.90;;
30472;SDS011;17263;48.160;11.452;2023-04-29T09:54:38;20.70;;;14.48;;
30472;SDS011;17263;48.160;11.452;2023-04-29T09:57:06;14.82;;;11.00;;
30472;SDS011;17263;48.160;11.452;2023-04-29T09:59:35;11.57;;;8.98;;
30472;SDS011;17263;48.160;11.452;2023-04-29T10:02:06;13.07;;;8.65;;
30472;SDS011;17263;48.160;11.452;2023-04-29T10:04:46;8.85;;;7.75;;
30472;SDS011;17263;48.160;11.452;2023-04-29T10:07:18;17.23;;;12.40;;
30472;SDS011;17263;48.160;11.452;2023-04-29T10:09:45;5.60;;;4.60;;
30472;SDS011;17263;48.160;11.452;2023-04-29T10:12:15;7.27;;;6.20;;
30472;SDS011;17263;48.160;11.452;2023-04-29T10:14:46;7.93;;;6.67;;
30472;SDS011;17263;48.160;11.452;2023-04-29T10:17:44;4.23;;;3.83;;
30472;SDS011;17263;48.160;11.452;2023-04-29T10:20:13;9.77;;;8.13;;
30472;SDS011;17263;48.160;11.452;2023-04-29T10:23:02;4.00;;;3.60;;
30472;SDS011;17263;48.160;11.452;2023-04-29T10:25:27;6.87;;;4.73;;
30472;SDS011;17263;48.160;11.452;2023-04-29T10:27:54;5.47;;;4.53;;
30472;SDS011;17263;48.160;11.452;2023-04-29T10:30:20;6.53;;;4.83;;
30472;SDS011;17263;48.160;11.452;2023-04-29T10:32:47;9.20;;;6.10;;
30472;SDS011;17263;48.160;11.452;2023-04-29T10:35:15;8.07;;;6.47;;
30472;SDS011;17263;48.160;11.452;2023-04-29T10:37:44;5.50;;;3.43;;
30472;SDS011;17263;48.160;11.452;2023-04-29T10:42:49;4.10;;;3.30;;
30472;SDS011;17263;48.160;11.452;2023-04-29T10:45:20;4.67;;;3.67;;
30472;SDS011;17263;48.160;11.452;2023-04-29T10:53:14;7.67;;;4.57;;
30472;SDS011;17263;48.160;11.452;2023-04-29T10:55:41;5.00;;;3.50;;
30472;SDS011;17263;48.160;11.452;2023-04-29T11:00:59;3.73;;;2.33;;
30472;SDS011;17263;48.160;11.452;2023-04-29T11:03:47;3.13;;;2.33;;
30472;SDS011;17263;48.160;11.452;2023-04-29T11:06:25;3.30;;;2.33;;
30472;SDS011;17263;48.160;11.452;2023-04-29T11:09:12;2.63;;;2.20;;
30472;SDS011;17263;48.160;11.452;2023-04-29T11:11:47;4.23;;;2.50;;
30472;SDS011;17263;48.160;11.452;2023-04-29T11:17:00;2.43;;;1.80;;
30472;SDS011;17263;48.160;11.452;2023-04-29T11:19:32;1.70;;;1.60;;
30472;SDS011;17263;48.160;11.452;2023-04-29T11:22:42;3.57;;;1.63;;
30472;SDS011;17263;48.160;11.452;2023-04-29T11:25:11;2.90;;;1.70;;
30472;SDS011;17263;48.160;11.452;2023-04-29T11:27:37;3.63;;;1.77;;
30472;SDS011;17263;48.160;11.452;2023-04-29T11:30:05;2.50;;;1.70;;
30472;SDS011;17263;48.160;11.452;2023-04-29T11:32:40;2.60;;;1.87;;
30472;SDS011;17263;48.160;11.452;2023-04-29T11:35:13;3.90;;;1.77;;
30472;SDS011;17263;48.160;11.452;2023-04-29T11:37:40;4.17;;;1.57;;
30472;SDS011;17263;48.160;11.452;2023-04-29T11:40:08;2.83;;;1.40;;
30472;SDS011;17263;48.160;11.452;2023-04-29T11:42:39;1.40;;;1.30;;
30472;SDS011;17263;48.160;11.452;2023-04-29T11:45:13;1.30;;;1.20;;
30472;SDS011;17263;48.160;11.452;2023-04-29T11:47:42;2.70;;;1.40;;
30472;SDS011;17263;48.160;11.452;2023-04-29T11:50:10;1.50;;;1.33;;
30472;SDS011;17263;48.160;11.452;2023-04-29T11:52:37;1.87;;;1.20;;
30472;SDS011;17263;48.160;11.452;2023-04-29T11:55:07;1.47;;;1.30;;
30472;SDS011;17263;48.160;11.452;2023-04-29T11:57:34;1.50;;;1.40;;
30472;SDS011;17263;48.160;11.452;2023-04-29T12:00:00;3.93;;;1.40;;
30472;SDS011;17263;48.160;11.452;2023-04-29T12:02:30;1.50;;;1.20;;
30472;SDS011;17263;48.160;11.452;2023-04-29T12:04:57;2.70;;;1.17;;
30472;SDS011;17263;48.160;11.452;2023-04-29T12:07:25;1.87;;;1.40;;
30472;SDS011;17263;48.160;11.452;2023-04-29T12:09:53;1.70;;;1.30;;
30472;SDS011;17263;48.160;11.452;2023-04-29T12:12:21;1.43;;;1.33;;
30472;SDS011;17263;48.160;11.452;2023-04-29T12:14:47;1.40;;;1.30;;
30472;SDS011;17263;48.160;11.452;2023-04-29T12:17:14;2.33;;;1.50;;
30472;SDS011;17263;48.160;11.452;2023-04-29T12:19:42;1.17;;;1.10;;
30472;SDS011;17263;48.160;11.452;2023-04-29T12:22:08;1.83;;;1.20;;
30472;SDS011;17263;48.160;11.452;2023-04-29T12:24:35;1.80;;;1.13;;
30472;SDS011;17263;48.160;11.452;2023-04-29T12:27:02;1.33;;;1.10;;
30472;SDS011;17263;48.160;11.452;2023-04-29T12:29:30;1.33;;;1.23;;
30472;SDS011;17263;48.160;11.452;2023-04-29T12:31:57;1.57;;;1.47;;
30472;SDS011;17263;48.160;11.452;2023-04-29T12:34:24;2.53;;;1.30;;
30472;SDS011;17263;48.160;11.452;2023-04-29T12:36:54;1.73;;;1.13;;
30472;SDS011;17263;48.160;11.452;2023-04-29T12:39:22;1.30;;;1.20;;
30472;SDS011;17263;48.160;11.452;2023-04-29T12:41:48;1.20;;;1.00;;
30472;SDS011;17263;48.160;11.452;2023-04-29T12:44:14;1.77;;;1.30;;
30472;SDS011;17263;48.160;11.452;2023-04-29T12:46:40;1.20;;;1.10;;
30472;SDS011;17263;48.160;11.452;2023-04-29T12:49:06;1.47;;;1.30;;
30472;SDS011;17263;48.160;11.452;2023-04-29T12:51:33;1.17;;;1.00;;
30472;SDS011;17263;48.160;11.452;2023-04-29T12:54:00;3.13;;;1.30;;
30472;SDS011;17263;48.160;11.452;2023-04-29T12:56:28;3.47;;;1.20;;
30472;SDS011;17263;48.160;11.452;2023-04-29T12:58:55;1.40;;;1.30;;
30472;SDS011;17263;48.160;11.452;2023-04-29T13:01:28;1.70;;;0.90;;
30472;SDS011;17263;48.160;11.452;2023-04-29T13:03:54;1.07;;;1.07;;
30472;SDS011;17263;48.160;11.452;2023-04-29T13:06:20;1.83;;;1.10;;
30472;SDS011;17263;48.160;11.452;2023-04-29T13:08:47;1.43;;;1.13;;
30472;SDS011;17263;48.160;11.452;2023-04-29T13:11:13;1.30;;;1.20;;
30472;SDS011;17263;48.160;11.452;2023-04-29T13:13:39;1.10;;;1.10;;
30472;SDS011;17263;48.160;11.452;2023-04-29T13:16:05;2.87;;;1.33;;
30472;SDS011;17263;48.160;11.452;2023-04-29T13:18:31;1.63;;;1.47;;
30472;SDS011;17263;48.160;11.452;2023-04-29T13:20:57;4.00;;;1.40;;
30472;SDS011;17263;48.160;11.452;2023-04-29T13:23:23;1.20;;;1.10;;
30472;SDS011;17263;48.160;11.452;2023-04-29T13:25:49;1.33;;;0.87;;
30472;SDS011;17263;48.160;11.452;2023-04-29T13:28:15;1.27;;;0.97;;
30472;SDS011;17263;48.160;11.452;2023-04-29T13:30:41;2.30;;;1.20;;
30472;SDS011;17263;48.160;11.452;2023-04-29T13:33:07;2.23;;;1.10;;
30472;SDS011;17263;48.160;11.452;2023-04-29T13:35:33;2.63;;;1.10;;
30472;SDS011;17263;48.160;11.452;2023-04-29T13:38:00;1.10;;;1.00;;
30472;SDS011;17263;48.160;11.452;2023-04-29T13:40:26;1.80;;;1.10;;
30472;SDS011;17263;48.160;11.452;2023-04-29T13:42:52;1.67;;;1.40;;
30472;SDS011;17263;48.160;11.452;2023-04-29T13:45:18;1.77;;;1.30;;
30472;SDS011;17263;48.160;11.452;2023-04-29T13:47:44;1.50;;;1.10;;
30472;SDS011;17263;48.160;11.452;2023-04-29T13:50:10;1.20;;;1.10;;
30472;SDS011;17263;48.160;11.452;2023-04-29T13:52:37;1.40;;;1.30;;
30472;SDS011;17263;48.160;11.452;2023-04-29T13:55:03;1.53;;;1.33;;
30472;SDS011;17263;48.160;11.452;2023-04-29T13:57:29;2.23;;;1.00;;
30472;SDS011;17263;48.160;11.452;2023-04-29T13:59:56;1.03;;;0.93;;
30472;SDS011;17263;48.160;11.452;2023-04-29T14:02:22;1.00;;;0.90;;
30472;SDS011;17263;48.160;11.452;2023-04-29T14:04:48;1.47;;;1.10;;
30472;SDS011;17263;48.160;11.452;2023-04-29T14:07:14;1.90;;;1.10;;
30472;SDS011;17263;48.160;11.452;2023-04-29T14:09:41;2.43;;;2.00;;
30472;SDS011;17263;48.160;11.452;2023-04-29T14:12:07;1.90;;;1.13;;
30472;SDS011;17263;48.160;11.452;2023-04-29T14:14:33;1.40;;;1.20;;
30472;SDS011;17263;48.160;11.452;2023-04-29T14:16:59;2.60;;;1.00;;
30472;SDS011;17263;48.160;11.452;2023-04-29T14:19:26;1.20;;;1.10;;
30472;SDS011;17263;48.160;11.452;2023-04-29T14:21:52;1.20;;;1.10;;
30472;SDS011;17263;48.160;11.452;2023-04-29T14:24:18;1.30;;;1.10;;
30472;SDS011;17263;48.160;11.452;2023-04-29T14:26:44;1.10;;;1.00;;
30472;SDS011;17263;48.160;11.452;2023-04-29T14:29:10;1.37;;;1.27;;
30472;SDS011;17263;48.160;11.452;2023-04-29T14:31:36;1.20;;;1.10;;
30472;SDS011;17263;48.160;11.452;2023-04-29T14:34:03;1.47;;;1.10;;
30472;SDS011;17263;48.160;11.452;2023-04-29T14:36:29;1.10;;;1.00;;
30472;SDS011;17263;48.160;11.452;2023-04-29T14:38:57;1.90;;;1.13;;
30472;SDS011;17263;48.160;11.452;2023-04-29T14:41:24;2.53;;;1.20;;
30472;SDS011;17263;48.160;11.452;2023-04-29T14:43:50;3.67;;;1.30;;
30472;SDS011;17263;48.160;11.452;2023-04-29T14:46:16;1.57;;;1.20;;
30472;SDS011;17263;48.160;11.452;2023-04-29T14:48:42;2.13;;;1.30;;
30472;SDS011;17263;48.160;11.452;2023-04-29T14:51:08;1.63;;;1.30;;
30472;SDS011;17263;48.160;11.452;2023-04-29T14:53:34;1.50;;;1.30;;
30472;SDS011;17263;48.160;11.452;2023-04-29T14:56:00;1.33;;;1.13;;